Time;durP1;ratioP1;P1;durP2;ratioP2;P2;SDS_P1;SDS_P2;PMS_P1;PMS_P2;Temp;Humidity;BMP_temperature;BMP_pressure;BME280_temperature;BME280_humidity;BME280_pressure;Samples;Min_cycle;Max_cycle;Signal;HPM_P1;HPM_P2
2021/12/25 00:04:30;;;;;;;7.00;6.30;;;;;;;7.31;70.36;99248.97;5108149;23;20070;-83
2021/12/25 00:06:58;;;;;;;6.88;6.18;;;;;;;7.29;70.02;99244.91;4973358;28;20055;-84
2021/12/25 00:09:26;;;;;;;6.13;5.53;;;;;;;7.27;70.23;99244.41;4964044;28;20066;-81
2021/12/25 00:11:55;;;;;;;6.35;5.55;;;;;;;7.28;70.46;99233.00;4960992;28;20055;-80
2021/12/25 00:14:42;;;;;;;7.75;6.70;;;;;;;7.23;70.65;99230.41;4967194;28;20066;-82
2021/12/25 00:17:09;;;;;;;6.63;5.80;;;;;;;7.22;71.01;99234.28;4945405;28;20058;-80
2021/12/25 00:19:36;;;;;;;7.65;6.82;;;;;;;6.88;71.09;99240.56;4961337;28;20066;-81
2021/12/25 00:22:07;;;;;;;8.13;7.32;;;;;;;7.09;71.08;99241.59;4961223;28;20055;-80
2021/12/25 00:24:35;;;;;;;9.18;8.18;;;;;;;7.10;71.25;99242.44;4977443;28;20054;-82
2021/12/25 00:27:08;;;;;;;7.65;6.95;;;;;;;7.02;71.46;99246.78;4963473;28;20047;-81
2021/12/25 00:29:55;;;;;;;6.82;6.15;;;;;;;7.01;70.16;99236.84;4972447;28;20055;-81
2021/12/25 00:32:45;;;;;;;8.25;7.22;;;;;;;6.82;71.33;99237.09;4955357;28;20058;-81
2021/12/25 00:35:13;;;;;;;6.97;6.28;;;;;;;6.83;70.89;99247.03;4958573;28;20063;-82
2021/12/25 00:37:42;;;;;;;7.30;6.60;;;;;;;6.76;70.87;99248.63;4959185;28;20059;-81
2021/12/25 00:40:10;;;;;;;6.60;6.00;;;;;;;6.82;71.07;99239.88;4958060;28;20058;-82
2021/12/25 00:42:40;;;;;;;7.43;6.72;;;;;;;6.64;71.06;99243.72;4962436;28;20062;-83
2021/12/25 00:45:08;;;;;;;7.97;7.22;;;;;;;6.74;70.61;99246.22;4972379;28;20055;-83
2021/12/25 00:47:36;;;;;;;8.35;7.55;;;;;;;6.77;70.68;99251.09;4961475;28;20050;-82
2021/12/25 00:50:03;;;;;;;7.40;6.70;;;;;;;6.70;70.33;99254.31;4957296;28;20492;-82
2021/12/25 00:52:31;;;;;;;7.40;6.70;;;;;;;6.70;70.17;99253.50;4959985;28;20062;-82
2021/12/25 00:55:00;;;;;;;5.90;5.30;;;;;;;6.62;70.52;99257.88;4959245;28;20055;-83
2021/12/25 00:57:28;;;;;;;6.97;6.30;;;;;;;6.65;70.45;99254.44;4964726;28;20503;-81
2021/12/25 00:59:55;;;;;;;7.38;6.65;;;;;;;6.59;71.28;99260.44;4956960;28;20055;-80
2021/12/25 01:02:23;;;;;;;7.40;6.70;;;;;;;6.61;70.96;99255.41;4959476;28;20055;-83
2021/12/25 01:04:50;;;;;;;7.32;6.63;;;;;;;6.65;70.74;99253.63;4963075;28;20055;-83
2021/12/25 01:07:19;;;;;;;6.78;6.07;;;;;;;6.68;70.01;99247.47;4963309;28;20061;-81
2021/12/25 01:09:46;;;;;;;7.50;6.80;;;;;;;6.61;70.16;99241.56;4977399;28;20055;-83
2021/12/25 01:12:15;;;;;;;6.57;5.97;;;;;;;6.60;70.75;99245.50;4959210;28;20059;-84
2021/12/25 01:14:47;;;;;;;7.53;6.72;;;;;;;6.56;70.36;99244.50;4958614;28;20039;-83
2021/12/25 01:17:31;;;;;;;8.32;6.13;;;;;;;6.46;70.59;99240.84;4957888;28;20059;-83
2021/12/25 01:20:29;;;;;;;6.45;5.85;;;;;;;6.38;70.24;99241.59;4953345;28;20059;-84
2021/12/25 01:31:19;;;;;;;7.13;6.43;;;;;;;6.28;70.24;99255.72;4961263;28;20062;-82
2021/12/25 01:36:48;;;;;;;7.35;6.65;;;;;;;6.26;70.10;99256.03;4951674;28;20697;-83
2021/12/25 01:39:20;;;;;;;6.82;6.10;;;;;;;6.31;70.08;99252.31;4961397;28;20423;-83
2021/12/25 01:42:06;;;;;;;8.25;7.45;;;;;;;6.20;70.41;99250.97;4963332;28;20052;-83
2021/12/25 01:50:08;;;;;;;9.15;8.23;;;;;;;6.08;69.75;99246.78;4964087;28;20066;-82
2021/12/25 01:52:36;;;;;;;9.13;8.23;;;;;;;6.13;70.10;99253.34;4962625;28;20059;-83
2021/12/25 01:55:06;;;;;;;10.15;9.15;;;;;;;6.15;70.34;99254.66;4960216;28;20055;-83
2021/12/25 01:57:34;;;;;;;9.45;8.55;;;;;;;6.17;70.56;99251.56;4960142;29;20058;-82
2021/12/25 02:00:07;;;;;;;9.30;8.40;;;;;;;6.17;69.95;99259.88;4970626;28;20074;-83
2021/12/25 02:02:34;;;;;;;10.68;9.57;;;;;;;6.14;70.05;99254.97;4959411;28;20059;-82
2021/12/25 02:05:02;;;;;;;10.02;9.02;;;;;;;6.14;69.77;99254.97;4959327;28;20051;-82
2021/12/25 02:07:29;;;;;;;8.77;7.88;;;;;;;6.08;69.73;99254.28;4959426;29;20062;-82
2021/12/25 02:09:57;;;;;;;10.68;9.68;;;;;;;6.10;69.87;99255.59;4960144;28;20082;-83
2021/12/25 02:12:24;;;;;;;8.88;7.97;;;;;;;6.02;69.91;99259.09;4959601;28;20055;-82
2021/12/25 02:14:52;;;;;;;11.70;10.60;;;;;;;6.04;69.84;99265.13;4959785;29;20051;-82
2021/12/25 02:17:26;;;;;;;9.23;8.32;;;;;;;6.02;70.30;99259.09;4964398;28;20055;-84
2021/12/25 02:22:48;;;;;;;10.13;9.10;;;;;;;5.89;69.93;99276.53;5089640;27;20633;-66
2021/12/25 02:25:17;;;;;;;9.82;8.82;;;;;;;5.79;69.80;99263.78;5089790;28;20060;-66
2021/12/25 02:27:45;;;;;;;11.05;9.95;;;;;;;5.68;70.06;99270.69;5089794;28;20052;-66
2021/12/25 02:30:12;;;;;;;11.27;10.18;;;;;;;5.75;70.32;99270.25;5088580;28;20408;-65
2021/12/25 02:32:40;;;;;;;12.98;11.57;;;;;;;5.76;69.96;99260.84;5072723;28;20053;-65
2021/12/25 02:35:07;;;;;;;12.93;11.73;;;;;;;5.70;70.04;99257.38;5069060;28;20053;-65
2021/12/25 02:37:35;;;;;;;12.02;10.80;;;;;;;5.69;69.89;99256.56;5069266;28;20059;-66
2021/12/25 02:40:04;;;;;;;10.27;9.18;;;;;;;5.68;69.62;99248.59;5071683;28;20712;-66
2021/12/25 02:42:31;;;;;;;10.77;9.10;;;;;;;5.66;69.83;99251.66;5068887;28;20048;-66
2021/12/25 02:44:59;;;;;;;10.25;9.05;;;;;;;5.60;69.79;99255.66;5080811;28;20056;-65
2021/12/25 02:47:29;;;;;;;11.40;10.15;;;;;;;5.54;69.56;99251.38;5069410;28;20075;-65
2021/12/25 02:49:56;;;;;;;10.38;9.27;;;;;;;5.50;70.05;99264.16;5068702;28;20055;-65
2021/12/25 02:52:24;;;;;;;12.55;11.35;;;;;;;5.46;69.99;99263.19;5078919;28;20114;-65
2021/12/25 02:54:52;;;;;;;11.07;9.82;;;;;;;5.27;70.55;99266.88;5088376;28;20440;-65
2021/12/25 02:57:20;;;;;;;10.55;9.32;;;;;;;5.39;70.43;99263.56;5087456;28;20052;-65
2021/12/25 02:59:48;;;;;;;9.45;8.45;;;;;;;5.39;70.44;99268.28;5058153;28;20053;-65
2021/12/25 03:02:17;;;;;;;12.10;10.90;;;;;;;5.25;70.83;99263.63;5068051;28;20052;-65
2021/12/25 03:04:48;;;;;;;11.05;9.95;;;;;;;5.33;70.55;99261.25;5067885;28;20115;-65
2021/12/25 03:07:16;;;;;;;12.18;10.98;;;;;;;5.37;70.54;99270.53;5066691;28;20481;-65
2021/12/25 03:09:45;;;;;;;9.93;8.93;;;;;;;5.29;70.53;99261.88;5048587;28;20056;-65
2021/12/25 03:12:14;;;;;;;11.40;10.23;;;;;;;5.36;70.93;99258.69;5048042;28;20049;-65
2021/12/25 03:15:03;;;;;;;11.02;9.93;;;;;;;5.44;70.52;99263.47;5049076;28;20421;-66
2021/12/25 03:17:33;;;;;;;10.95;9.77;;;;;;;5.39;70.66;99263.56;5048100;28;20056;-66
2021/12/25 03:20:00;;;;;;;;;;;;;;;5.36;70.59;99257.88;5048946;28;20057;-65
2021/12/25 03:22:28;;;;;;;10.05;8.98;;;;;;;5.28;70.23;99251.94;5047401;28;19921;-65
2021/12/25 03:24:55;;;;;;;11.55;10.35;;;;;;;5.35;70.02;99248.75;5047870;28;20410;-65
2021/12/25 03:27:22;;;;;;;12.18;10.98;;;;;;;5.37;70.11;99245.69;5048495;28;20057;-63
2021/12/25 03:29:51;;;;;;;11.27;10.10;;;;;;;5.34;70.18;99254.59;5047812;28;20053;-65
2021/12/25 03:32:19;;;;;;;12.27;11.07;;;;;;;5.28;70.41;99251.13;5044443;28;20050;-65
2021/12/25 03:34:46;;;;;;;11.23;9.35;;;;;;;5.24;70.04;99250.13;5034751;28;20057;-65
2021/12/25 03:37:14;;;;;;;11.95;10.75;;;;;;;5.21;70.30;99251.56;5034654;28;20057;-65
2021/12/25 03:39:41;;;;;;;10.52;9.43;;;;;;;5.20;70.25;99247.16;5034721;28;20058;-65
2021/12/25 03:42:09;;;;;;;11.32;10.13;;;;;;;5.13;69.92;99252.28;5033980;28;20417;-65
2021/12/25 03:44:37;;;;;;;10.75;9.65;;;;;;;5.17;70.22;99255.25;5034653;28;20050;-65
2021/12/25 03:47:21;;;;;;;9.90;8.85;;;;;;;5.20;70.50;99254.63;5034398;28;20486;-65
2021/12/25 03:58:04;;;;;;;10.07;8.98;;;;;;;5.21;70.14;99253.50;5038302;28;20066;-65
2021/12/25 04:00:33;;;;;;;10.63;9.52;;;;;;;5.17;70.19;99249.72;5033914;28;20405;-65
2021/12/25 04:03:06;;;;;;;11.45;10.32;;;;;;;5.14;70.08;99270.47;5033872;28;20049;-65
2021/12/25 04:05:36;;;;;;;12.10;10.02;;;;;;;5.10;69.39;99258.41;5034703;28;20057;-66
2021/12/25 04:08:06;;;;;;;10.77;9.02;;;;;;;5.09;69.85;99252.06;5034525;28;20053;-65
2021/12/25 04:10:37;;;;;;;10.38;9.27;;;;;;;5.08;69.68;99250.44;5034007;28;20076;-65
2021/12/25 04:13:07;;;;;;;11.15;9.98;;;;;;;5.12;69.90;99253.38;5034479;28;20049;-65
2021/12/25 04:15:35;;;;;;;10.35;9.35;;;;;;;5.08;69.81;99252.38;5034076;28;20057;-65
2021/12/25 04:18:05;;;;;;;12.05;10.82;;;;;;;5.03;69.86;99255.25;5034670;28;20060;-66
2021/12/25 04:20:33;;;;;;;12.00;10.75;;;;;;;4.81;70.32;99253.22;5033479;28;20061;-65
2021/12/25 04:23:03;;;;;;;10.13;9.02;;;;;;;4.94;70.13;99254.34;5033964;28;20547;-66
2021/12/25 04:25:33;;;;;;;10.02;8.63;;;;;;;4.96;69.99;99263.13;5033797;28;20057;-65
2021/12/25 04:28:08;;;;;;;10.75;9.65;;;;;;;4.92;70.17;99265.69;5033770;28;20053;-66
2021/12/25 04:30:45;;;;;;;13.07;9.38;;;;;;;4.81;70.32;99269.78;5033703;28;20068;-65
2021/12/25 05:03:55;;;;;;;10.75;8.88;;;;;;;4.58;70.20;99307.44;5128121;27;20055;-65
2021/12/25 05:06:23;;;;;;;10.73;9.63;;;;;;;4.63;70.10;99305.38;5121749;28;20047;-65
2021/12/25 05:08:53;;;;;;;10.23;9.23;;;;;;;4.67;70.07;99309.19;5130008;27;20047;-65
2021/12/25 05:11:21;;;;;;;10.60;9.50;;;;;;;4.48;70.44;99303.72;5119885;27;20063;-65
2021/12/25 05:13:50;;;;;;;10.95;9.65;;;;;;;4.52;70.15;99306.69;5109366;28;20052;-66
2021/12/25 05:16:18;;;;;;;10.63;9.32;;;;;;;4.56;69.84;99301.41;5108863;28;20051;-65
2021/12/25 05:18:45;;;;;;;11.60;9.57;;;;;;;4.59;70.14;99317.34;5109282;28;20048;-65
2021/12/25 05:21:13;;;;;;;9.77;8.77;;;;;;;4.57;69.70;99319.56;5116156;28;20055;-65
2021/12/25 05:23:41;;;;;;;11.63;10.43;;;;;;;4.37;70.42;99321.56;5129282;27;20054;-65
2021/12/25 05:26:09;;;;;;;10.45;9.45;;;;;;;4.52;69.49;99320.50;5129352;27;20479;-65
2021/12/25 05:28:41;;;;;;;9.98;8.98;;;;;;;4.52;69.63;99322.44;5129378;27;20100;-65
2021/12/25 05:31:09;;;;;;;10.35;9.27;;;;;;;4.44;69.99;99324.75;5127249;27;20051;-66
2021/12/25 05:33:36;;;;;;;10.70;9.60;;;;;;;4.46;69.84;99313.44;5128825;27;20062;-65
2021/12/25 05:36:05;;;;;;;12.05;10.88;;;;;;;4.41;69.75;99322.59;5128871;27;20050;-65
2021/12/25 05:38:33;;;;;;;9.70;8.70;;;;;;;4.43;69.81;99320.38;5121963;27;20077;-65
2021/12/25 05:41:02;;;;;;;10.13;9.13;;;;;;;4.35;69.94;99323.00;5108723;28;20052;-66
2021/12/25 05:43:31;;;;;;;9.40;8.43;;;;;;;4.39;69.73;99324.84;5108712;28;20056;-66
2021/12/25 05:45:58;;;;;;;8.60;7.68;;;;;;;4.42;69.65;99324.22;5103660;28;20048;-65
2021/12/25 05:48:26;;;;;;;9.93;8.70;;;;;;;4.39;69.56;99321.25;5095523;28;20048;-65
2021/12/25 05:50:53;;;;;;;11.00;9.98;;;;;;;4.43;69.66;99325.03;5095592;28;20044;-66
2021/12/25 05:53:20;;;;;;;11.65;10.45;;;;;;;4.28;69.95;99320.59;5110597;28;20066;-65
2021/12/25 05:55:48;;;;;;;9.85;8.85;;;;;;;4.36;69.98;99319.91;5115426;28;20496;-65
2021/12/25 05:58:15;;;;;;;9.68;8.68;;;;;;;4.40;69.59;99325.66;5115406;28;20506;-65
2021/12/25 06:00:44;;;;;;;9.85;8.85;;;;;;;4.34;69.65;99327.66;5114088;28;20056;-65
2021/12/25 06:03:11;;;;;;;8.75;7.85;;;;;;;4.31;69.71;99333.81;5112309;27;20070;-64
2021/12/25 06:05:39;;;;;;;9.77;8.80;;;;;;;4.35;69.84;99332.09;5094727;28;20438;-64
2021/12/25 06:08:07;;;;;;;10.02;9.13;;;;;;;4.17;70.53;99333.75;5094726;28;20045;-64
2021/12/25 06:10:34;;;;;;;8.68;7.88;;;;;;;4.26;70.20;99337.47;5097591;28;20114;-64
2021/12/25 06:13:03;;;;;;;9.50;8.55;;;;;;;4.29;69.92;99341.56;5113970;28;20048;-64
2021/12/25 06:15:31;;;;;;;8.32;7.53;;;;;;;4.29;69.80;99346.25;5114655;27;20052;-64
2021/12/25 06:17:59;;;;;;;8.45;7.57;;;;;;;4.26;70.04;99337.47;5114908;28;20059;-64
2021/12/25 06:20:27;;;;;;;7.93;7.13;;;;;;;4.17;70.19;99335.69;5113530;28;20063;-64
2021/12/25 06:22:54;;;;;;;8.63;7.70;;;;;;;4.24;70.15;99339.72;5114484;28;20047;-64
2021/12/25 06:25:22;;;;;;;8.10;7.30;;;;;;;4.16;69.88;99342.28;5114755;28;20052;-64
2021/12/25 06:27:49;;;;;;;9.38;8.35;;;;;;;4.07;69.96;99354.03;5114811;28;20048;-64
2021/12/25 06:30:16;;;;;;;7.68;6.93;;;;;;;4.11;69.86;99340.44;5113507;28;20054;-64
2021/12/25 06:32:44;;;;;;;8.50;7.18;;;;;;;4.04;69.90;99353.78;5113329;28;20054;-64
2021/12/25 06:35:13;;;;;;;8.95;8.05;;;;;;;4.00;69.61;99350.00;5113873;28;20047;-64
2021/12/25 06:37:42;;;;;;;9.05;8.20;;;;;;;3.72;70.51;99352.59;5114585;28;20491;-64
2021/12/25 06:40:11;;;;;;;8.90;8.10;;;;;;;3.79;70.65;99354.97;5114059;28;20467;-66
2021/12/25 06:42:39;;;;;;;10.07;9.07;;;;;;;3.87;70.43;99354.31;5094282;28;20052;-66
2021/12/25 06:45:07;;;;;;;8.35;7.53;;;;;;;3.86;70.63;99361.78;5094220;28;20478;-64
2021/12/25 06:47:34;;;;;;;8.43;7.65;;;;;;;3.84;70.72;99363.16;5094035;28;20504;-64
2021/12/25 06:50:02;;;;;;;8.30;7.50;;;;;;;3.85;70.30;99362.88;5094145;28;20055;-64
2021/12/25 06:52:30;;;;;;;7.75;6.95;;;;;;;3.93;70.50;99369.66;5112573;28;20052;-63
2021/12/25 06:54:58;;;;;;;8.20;7.38;;;;;;;3.86;70.55;99378.28;5114127;28;20052;-63
2021/12/25 06:57:27;;;;;;;8.23;7.43;;;;;;;3.94;70.17;99376.78;5113373;28;20074;-63
2021/12/25 06:59:54;;;;;;;7.07;6.38;;;;;;;3.97;70.03;99378.97;5114372;28;20114;-63
2021/12/25 07:02:22;;;;;;;7.22;6.43;;;;;;;3.96;69.81;99380.06;5096989;28;20523;-64
2021/12/25 07:04:49;;;;;;;7.72;6.93;;;;;;;3.98;69.71;99380.59;5097913;28;20052;-66
2021/12/25 07:07:17;;;;;;;8.60;7.80;;;;;;;4.03;69.55;99383.28;5093248;28;20056;-66
2021/12/25 07:09:46;;;;;;;9.40;7.95;;;;;;;4.05;69.27;99382.97;5093749;28;20052;-66
2021/12/25 07:12:13;;;;;;;8.02;7.22;;;;;;;4.09;70.41;99388.72;5094135;28;20063;-66
2021/12/25 07:14:41;;;;;;;7.68;6.93;;;;;;;4.04;71.03;99398.69;5093160;28;20063;-63
2021/12/25 07:17:08;;;;;;;8.38;7.38;;;;;;;4.19;70.40;99383.06;5092520;28;20044;-63
2021/12/25 07:19:35;;;;;;;6.97;6.32;;;;;;;4.25;69.67;99390.13;5092911;28;20058;-63
2021/12/25 07:22:04;;;;;;;7.15;6.45;;;;;;;4.23;69.34;99404.19;5106944;28;20048;-63
2021/12/25 07:24:31;;;;;;;6.85;6.25;;;;;;;4.19;68.90;99411.44;5113245;28;20063;-64
2021/12/25 07:27:03;;;;;;;6.90;6.30;;;;;;;4.16;69.00;99408.44;5113255;28;20044;-64
2021/12/25 07:29:30;;;;;;;6.82;6.15;;;;;;;4.20;69.30;99415.00;5112921;28;20060;-64
2021/12/25 07:31:58;;;;;;;7.50;6.85;;;;;;;4.10;68.81;99412.41;5108042;28;20381;-64
2021/12/25 07:34:25;;;;;;;6.95;6.25;;;;;;;4.15;68.86;99412.31;5100564;28;20051;-63
2021/12/25 07:36:52;;;;;;;12.63;9.40;;;;;;;4.07;68.54;99413.81;5112954;28;20126;-64
2021/12/25 07:39:20;;;;;;;10.45;9.35;;;;;;;4.09;68.37;99416.28;5104801;28;20054;-65
2021/12/25 07:41:47;;;;;;;9.52;8.48;;;;;;;4.09;68.75;99419.03;5105715;28;20518;-64
2021/12/25 07:44:16;;;;;;;8.70;7.80;;;;;;;4.05;68.74;99421.53;5112509;28;20063;-64
2021/12/25 07:46:45;;;;;;;7.90;7.05;;;;;;;4.07;68.34;99422.91;5101304;28;20048;-64
2021/12/25 07:49:17;;;;;;;7.85;7.00;;;;;;;4.02;68.11;99419.41;5110130;28;20070;-64
2021/12/25 07:51:45;;;;;;;7.80;7.05;;;;;;;3.94;68.38;99428.31;5102941;28;20413;-64
2021/12/25 07:54:13;;;;;;;9.18;8.27;;;;;;;3.96;68.07;99437.94;5097157;28;20115;-64
2021/12/25 07:56:40;;;;;;;9.05;8.15;;;;;;;3.89;68.27;99431.97;5092599;28;20051;-64
2021/12/25 07:59:08;;;;;;;8.75;7.95;;;;;;;3.93;68.21;99437.72;5093742;28;20059;-65
2021/12/25 08:01:37;;;;;;;8.10;7.30;;;;;;;3.89;68.31;99444.94;5101963;28;20040;-64
2021/12/25 08:04:05;;;;;;;8.88;8.00;;;;;;;3.82;68.49;99442.50;5102271;28;20503;-64
2021/12/25 08:06:34;;;;;;;11.20;10.10;;;;;;;3.88;68.62;99448.78;5100197;28;20047;-64
2021/12/25 08:09:03;;;;;;;9.13;7.95;;;;;;;3.85;68.67;99447.44;5092571;28;20105;-64
2021/12/25 08:11:31;;;;;;;9.10;7.70;;;;;;;3.86;68.51;99457.34;5092143;28;20056;-64
2021/12/25 08:14:01;;;;;;;8.15;7.40;;;;;;;3.87;68.48;99459.00;5098918;28;20051;-64
2021/12/25 08:16:28;;;;;;;;;;;;;;;3.66;68.35;99466.69;5110755;28;20054;-64
2021/12/25 08:18:56;;;;;;;8.95;8.05;;;;;;;3.61;69.31;99462.06;5100459;28;19920;-64
2021/12/25 08:21:23;;;;;;;8.32;7.30;;;;;;;3.59;69.39;99464.28;5100776;28;20048;-64
2021/12/25 08:23:53;;;;;;;8.07;6.93;;;;;;;3.58;69.02;99459.88;5110529;28;20411;-64
2021/12/25 08:26:20;;;;;;;7.53;6.72;;;;;;;3.61;69.56;99464.81;5096761;28;20416;-64
2021/12/25 08:28:47;;;;;;;7.20;6.50;;;;;;;3.56;68.96;99464.84;5105918;28;20047;-64
2021/12/25 08:31:15;;;;;;;8.00;7.13;;;;;;;3.62;69.20;99468.38;5103352;28;20071;-64
2021/12/25 08:33:42;;;;;;;8.15;7.18;;;;;;;3.49;69.98;99483.66;5095136;28;20044;-64
2021/12/25 08:36:11;;;;;;;7.97;7.18;;;;;;;3.55;69.90;99477.00;5106909;28;20055;-64
2021/12/25 08:38:38;;;;;;;8.40;6.97;;;;;;;3.68;69.94;99480.16;5111604;28;20047;-64
2021/12/25 08:41:05;;;;;;;7.22;6.55;;;;;;;3.71;69.55;99485.06;5099054;28;20056;-64
2021/12/25 08:43:36;;;;;;;7.93;7.05;;;;;;;3.64;69.74;99486.25;5100111;28;20424;-64
2021/12/25 08:46:13;;;;;;;7.18;6.45;;;;;;;3.76;69.34;99482.25;5101003;28;20052;-65
2021/12/25 08:48:40;;;;;;;5.57;5.07;;;;;;;3.62;69.20;99480.22;5099136;28;20052;-64
2021/12/25 08:51:08;;;;;;;6.57;5.72;;;;;;;3.62;69.24;99482.97;5093459;28;20048;-65
2021/12/25 08:53:37;;;;;;;6.93;4.85;;;;;;;3.62;69.72;99484.91;5091174;28;20040;-65
2021/12/25 08:56:05;;;;;;;6.70;6.00;;;;;;;3.69;69.78;99488.13;5092564;28;20063;-65
2021/12/25 08:58:32;;;;;;;5.25;4.75;;;;;;;3.72;68.81;99495.00;5097612;28;20051;-65
2021/12/25 09:01:01;;;;;;;5.60;5.10;;;;;;;3.75;68.56;99497.16;5098336;28;20052;-64
2021/12/25 09:03:30;;;;;;;5.00;4.50;;;;;;;3.57;69.31;99496.81;5091262;28;20052;-64
2021/12/25 09:05:59;;;;;;;4.65;4.10;;;;;;;3.68;68.80;99496.69;5091657;28;20393;-64
2021/12/25 09:08:27;;;;;;;5.65;4.53;;;;;;;3.77;68.74;99495.72;5091216;28;20052;-64
2021/12/25 09:10:56;;;;;;;5.35;4.65;;;;;;;3.88;68.39;99496.44;5093026;28;20496;-64
2021/12/25 09:13:23;;;;;;;4.95;4.30;;;;;;;3.92;68.05;99502.19;5100882;28;20062;-64
2021/12/25 09:15:51;;;;;;;4.78;4.13;;;;;;;3.86;67.69;99504.16;5107153;28;20059;-64
2021/12/25 09:18:18;;;;;;;4.88;3.95;;;;;;;3.96;67.50;99517.00;5111348;28;20048;-64
2021/12/25 09:20:46;;;;;;;4.78;4.25;;;;;;;3.99;67.08;99519.16;5107438;28;20492;-66
2021/12/25 09:23:14;;;;;;;4.63;4.10;;;;;;;3.98;66.91;99517.53;5094862;28;20067;-65
2021/12/25 09:25:41;;;;;;;4.45;3.78;;;;;;;3.99;66.16;99525.50;5094772;28;20078;-63
2021/12/25 09:28:10;;;;;;;4.95;4.20;;;;;;;3.94;66.19;99525.56;5105361;28;20476;-65
2021/12/25 09:30:37;;;;;;;4.47;3.90;;;;;;;3.94;65.97;99531.06;5111587;28;20048;-64
2021/12/25 09:33:05;;;;;;;5.00;4.18;;;;;;;3.91;65.81;99526.16;5113998;28;20052;-64
2021/12/25 09:35:32;;;;;;;4.47;4.05;;;;;;;3.90;66.06;99527.25;5115134;28;20058;-65
2021/12/25 09:38:00;;;;;;;4.75;3.22;;;;;;;3.74;65.42;99536.81;5115498;28;20396;-65
2021/12/25 09:40:28;;;;;;;5.10;3.63;;;;;;;3.68;66.29;99536.06;5113039;27;20059;-65
2021/12/25 09:42:55;;;;;;;5.35;3.25;;;;;;;3.60;66.06;99531.19;5094802;28;20389;-65
2021/12/25 09:45:24;;;;;;;4.43;3.88;;;;;;;3.69;66.17;99529.41;5094479;28;20056;-65
2021/12/25 09:47:52;;;;;;;5.30;3.28;;;;;;;3.73;66.39;99537.94;5094897;28;20059;-65
2021/12/25 09:50:20;;;;;;;3.88;2.78;;;;;;;3.84;65.40;99542.19;5094569;28;20063;-65
2021/12/25 09:52:47;;;;;;;4.13;2.90;;;;;;;3.82;65.31;99544.44;5094372;28;20393;-65
2021/12/25 09:55:16;;;;;;;3.50;2.90;;;;;;;3.82;65.13;99550.78;5094516;28;20059;-65
2021/12/25 09:57:43;;;;;;;3.90;3.10;;;;;;;3.82;64.41;99549.94;5094414;28;20496;-65
2021/12/25 10:00:15;;;;;;;4.25;3.50;;;;;;;3.61;65.03;99554.84;5094351;28;20051;-65
2021/12/25 10:02:49;;;;;;;3.58;2.80;;;;;;;3.70;64.18;99560.56;5094139;28;20052;-65
2021/12/25 10:05:25;;;;;;;3.50;2.70;;;;;;;3.66;64.05;99555.63;5094150;28;20048;-65
2021/12/25 10:08:02;;;;;;;3.70;3.22;;;;;;;3.54;64.51;99551.63;5094385;28;20052;-65
2021/12/25 10:10:39;;;;;;;3.35;2.60;;;;;;;3.55;64.27;99548.59;5094374;28;20054;-65
2021/12/25 10:13:18;;;;;;;3.15;2.25;;;;;;;3.45;64.50;99559.69;5094098;28;20075;-65
2021/12/25 10:15:46;;;;;;;3.60;2.53;;;;;;;3.44;64.53;99549.78;5094090;28;20492;-65
2021/12/25 10:18:15;;;;;;;3.60;2.80;;;;;;;3.50;64.24;99559.63;5093911;28;20712;-65
2021/12/25 10:20:42;;;;;;;3.60;2.20;;;;;;;3.36;64.08;99555.91;5097657;28;20056;-65
2021/12/25 10:23:14;;;;;;;4.35;2.20;;;;;;;3.49;64.41;99541.47;5114572;28;20048;-65
2021/12/25 10:25:47;;;;;;;2.50;2.30;;;;;;;3.40;64.26;99549.56;5114221;28;20052;-65
2021/12/25 10:28:16;;;;;;;3.78;2.88;;;;;;;3.39;64.85;99549.84;5114511;27;20054;-65
2021/12/25 10:30:53;;;;;;;4.35;2.88;;;;;;;3.59;64.11;99543.28;5110563;28;20069;-65
2021/12/25 10:33:29;;;;;;;3.22;2.25;;;;;;;3.70;63.19;99549.53;5104085;28;20060;-65
2021/12/25 10:36:01;;;;;;;3.42;2.70;;;;;;;3.95;62.72;99545.66;5114195;28;20064;-65
2021/12/25 10:38:30;;;;;;;3.25;2.13;;;;;;;4.06;62.87;99548.00;5113628;28;20046;-65
2021/12/25 10:41:20;;;;;;;3.83;2.28;;;;;;;4.27;61.69;99548.56;5107296;28;20062;-65
2021/12/25 10:43:52;;;;;;;4.43;2.40;;;;;;;4.12;62.28;99556.22;5094058;28;20078;-65
2021/12/25 10:46:20;;;;;;;3.67;2.33;;;;;;;4.42;62.01;99550.31;5097225;28;20063;-65
2021/12/25 10:48:49;;;;;;;3.30;2.30;;;;;;;4.55;61.28;99547.94;5094005;28;20048;-65
2021/12/25 10:51:29;;;;;;;2.65;2.30;;;;;;;4.63;59.98;99544.53;5094655;28;20052;-65
2021/12/25 10:53:56;;;;;;;;;;;;;;;4.42;60.73;99547.56;5094986;28;20067;-65
2021/12/25 10:56:23;;;;;;;4.20;2.45;;;;;;;4.65;60.72;99542.28;5103394;28;19919;-65
2021/12/25 10:58:53;;;;;;;8.38;4.10;;;;;;;4.77;60.05;99548.19;5113956;28;20389;-65
2021/12/25 11:01:20;;;;;;;;;;;;;;;4.78;60.01;99552.56;5112222;28;20043;-65
2021/12/25 11:03:50;;;;;;;4.70;2.60;;;;;;;5.01;58.95;99555.53;5106176;28;20383;-65
2021/12/25 11:06:19;;;;;;;4.43;3.53;;;;;;;5.05;59.20;99556.59;5093487;28;20070;-65
2021/12/25 11:08:48;;;;;;;5.85;3.30;;;;;;;5.24;58.84;99540.81;5093562;28;20044;-65
2021/12/25 11:11:18;;;;;;;2.53;2.00;;;;;;;5.15;58.24;99555.63;5102316;28;20056;-65
2021/12/25 11:13:48;;;;;;;4.93;3.35;;;;;;;5.36;57.63;99548.63;5113478;28;20052;-65
2021/12/25 11:16:23;;;;;;;3.33;2.30;;;;;;;5.46;57.39;99551.22;5113862;28;20070;-65
2021/12/25 11:19:03;;;;;;;4.38;2.90;;;;;;;5.70;56.89;99551.03;5113567;28;20052;-65
2021/12/25 11:21:33;;;;;;;4.57;2.70;;;;;;;6.29;55.43;99542.19;5111428;28;20056;-65
2021/12/25 11:24:08;;;;;;;;;;;;;;;6.66;54.16;99551.34;5113992;28;21192;-65
2021/12/25 11:26:36;;;;;;;7.25;5.90;;;;;;;7.56;51.58;99550.56;5113291;28;19920;-65
2021/12/25 11:29:04;;;;;;;4.65;3.15;;;;;;;7.92;50.94;99544.91;5113013;28;20052;-65
2021/12/25 11:31:32;;;;;;;4.30;3.35;;;;;;;8.29;50.61;99546.34;5111001;28;20404;-65
2021/12/25 11:34:01;;;;;;;4.60;4.10;;;;;;;9.00;48.61;99550.88;5112626;28;20059;-65
2021/12/25 11:36:28;;;;;;;4.60;3.25;;;;;;;9.78;46.44;99540.78;5112989;28;20431;-65
2021/12/25 11:38:56;;;;;;;5.50;3.40;;;;;;;9.82;44.93;99538.97;5113007;28;20395;-66
2021/12/25 11:41:31;;;;;;;4.70;3.22;;;;;;;9.37;46.44;99539.44;5102680;28;20515;-66
2021/12/25 11:44:00;;;;;;;4.85;3.10;;;;;;;9.01;46.11;99551.69;5092015;28;20056;-64
2021/12/25 11:46:38;;;;;;;2.72;2.10;;;;;;;8.37;46.08;99543.91;5092285;28;20059;-64
2021/12/25 11:49:10;;;;;;;5.53;3.20;;;;;;;8.09;47.52;99544.16;5092454;28;20467;-63
2021/12/25 11:51:40;;;;;;;5.43;3.75;;;;;;;7.65;47.38;99545.91;5097683;28;20059;-63
2021/12/25 11:54:54;;;;;;;2.40;1.92;;;;;;;7.38;48.17;99546.88;5093574;28;20051;-63
2021/12/25 11:57:45;;;;;;;2.10;1.70;;;;;;;7.15;49.43;99544.09;5092290;28;20055;-63
2021/12/25 12:00:12;;;;;;;2.88;1.80;;;;;;;7.14;47.93;99536.09;5092275;28;20055;-63
2021/12/25 12:02:42;;;;;;;2.38;1.80;;;;;;;6.61;49.48;99543.16;5093844;28;20351;-63
2021/12/25 12:05:26;;;;;;;4.70;2.92;;;;;;;6.58;49.83;99539.06;5091924;28;20056;-65
2021/12/25 12:08:03;;;;;;;4.28;3.22;;;;;;;6.61;49.39;99541.19;5091845;28;20043;-63
2021/12/25 12:11:00;;;;;;;4.03;3.03;;;;;;;6.80;49.38;99537.47;5092513;28;20047;-63
2021/12/25 12:13:29;;;;;;;3.88;2.10;;;;;;;7.03;49.36;99532.78;5100429;28;20460;-64
2021/12/25 12:15:59;;;;;;;2.92;2.10;;;;;;;7.09;48.40;99537.06;5112393;28;20055;-64
2021/12/25 12:18:39;;;;;;;3.40;2.20;;;;;;;6.94;48.15;99526.34;5112195;28;20048;-64
2021/12/25 12:21:36;;;;;;;2.42;1.70;;;;;;;6.86;49.50;99523.19;5110265;28;20056;-64
2021/12/25 12:27:05;;;;;;;2.55;1.42;;;;;;;6.34;49.37;99532.94;5108300;28;20056;-64
2021/12/25 12:29:49;;;;;;;2.40;1.90;;;;;;;6.37;50.48;99521.28;5112030;28;20055;-64
2021/12/25 12:32:36;;;;;;;2.75;2.13;;;;;;;6.35;49.85;99524.34;5110366;28;20062;-63
2021/12/25 12:35:06;;;;;;;2.33;1.95;;;;;;;5.87;50.98;99533.84;5111844;28;20051;-63
2021/12/25 12:37:35;;;;;;;2.70;1.75;;;;;;;6.50;50.23;99526.78;5112041;28;20051;-64
2021/12/25 12:40:24;;;;;;;4.40;1.83;;;;;;;7.92;45.75;99531.84;5112122;28;20052;-64
2021/12/25 12:42:56;;;;;;;2.45;1.70;;;;;;;7.84;46.88;99515.19;5097571;28;20465;-64
2021/12/25 12:45:26;;;;;;;2.08;1.52;;;;;;;7.27;46.83;99533.28;5112163;28;20047;-64
2021/12/25 12:48:20;;;;;;;2.83;1.67;;;;;;;7.07;47.39;99531.81;5107853;28;20048;-64
2021/12/25 12:50:49;;;;;;;1.80;1.27;;;;;;;6.71;48.37;99543.75;5092261;28;20037;-63
2021/12/25 12:53:22;;;;;;;;;;;;;;;6.08;48.38;99545.34;5092534;28;20059;-63
2021/12/25 12:55:51;;;;;;;2.67;1.33;;;;;;;5.85;49.65;99540.81;5092454;28;19920;-65
2021/12/25 12:58:23;;;;;;;2.38;1.58;;;;;;;5.97;49.47;99555.00;5096092;28;20052;-64
2021/12/25 13:00:53;;;;;;;2.53;1.60;;;;;;;6.02;49.91;99560.41;5099525;28;20050;-63